EGPB

Sumburgh Airport

Lerwick, United Kingdom
METAR EGPB 152150Z AUTO 22011KT 9999 NCD 13/11 Q1000
Observed Flight Rules
Aug-15 @ 21:50 UTC (38 minutes ago) Visual Flight Rules
Wind Visibility Clouds
220° at 11 knots 10,000+ meters
  • Clear skies
Temperatures Readings
Current 13°C / 55°F
Dewpoint 11°C / 52°F
Humidity 88%
Altimeter 29.53" Hg
Pressure 1000 hPa
Elevation 5
METAR EGPB 152150Z AUTO 22011KT 9999 NCD 13/11 Q1000
Observed Flight Rules
Aug-15 @ 21:50 UTC
(38 minutes ago)
VFR
Wind Visibility
220° at 11 knots 10,000+ meters
Clouds
  • Clear skies
Temperature Dewpoint
13°C / 55°F 11°C / 52°F
Humidity Altimeter Pressure
88% 29.53" Hg 1000 hPa